Time;durP1;ratioP1;P1;durP2;ratioP2;P2;SDS_P1;SDS_P2;PMS_P1;PMS_P2;Temp;Humidity;BMP_temperature;BMP_pressure;BME280_temperature;BME280_humidity;BME280_pressure;Samples;Min_cycle;Max_cycle;Signal;HPM_P1;HPM_P2
2021/08/18 00:00:06;;;;;;;23.70;21.80;;;;;;;11.87;100.00;98929.09;2097142;28;20770;-74
2021/08/18 00:01:06;;;;;;;24.63;22.52;;;;;;;11.88;100.00;98933.34;2097305;28;20236;-73
2021/08/18 00:02:08;;;;;;;23.63;21.83;;;;;;;11.89;100.00;98934.91;2097093;28;20214;-74
2021/08/18 00:03:09;;;;;;;24.42;22.63;;;;;;;11.89;100.00;98934.91;2097466;28;20247;-74
2021/08/18 00:04:11;;;;;;;25.60;23.13;;;;;;;11.89;100.00;98932.25;2096619;28;20253;-73
2021/08/18 00:05:14;;;;;;;23.75;21.50;;;;;;;11.91;100.00;98936.50;2096706;28;20224;-74
2021/08/18 00:06:18;;;;;;;23.65;21.75;;;;;;;11.94;100.00;98946.59;2097264;28;20574;-73
2021/08/18 00:07:19;;;;;;;24.08;22.27;;;;;;;11.91;100.00;98937.31;2096828;28;20301;-73
2021/08/18 00:08:20;;;;;;;24.35;22.45;;;;;;;11.93;100.00;98939.66;2080581;28;20269;-74
2021/08/18 00:09:21;;;;;;;24.17;22.35;;;;;;;11.93;100.00;98945.00;2096253;28;20720;-74
2021/08/18 00:10:26;;;;;;;23.63;21.73;;;;;;;11.92;100.00;98938.88;2096577;28;20226;-74
2021/08/18 00:11:26;;;;;;;23.35;21.45;;;;;;;11.93;100.00;98945.00;2096684;28;21808;-74
2021/08/18 00:12:28;;;;;;;23.93;22.13;;;;;;;11.95;100.00;98938.25;2097322;28;20313;-74
2021/08/18 00:13:29;;;;;;;23.90;22.02;;;;;;;11.97;100.00;98937.94;2096404;28;20254;-73
2021/08/18 00:14:30;;;;;;;24.15;22.45;;;;;;;12.00;100.00;98943.47;2096559;28;20226;-73
2021/08/18 00:15:31;;;;;;;23.70;21.80;;;;;;;11.98;100.00;98947.53;2097389;28;20230;-74
2021/08/18 00:16:33;;;;;;;24.50;22.40;;;;;;;11.98;100.00;98942.19;2097303;28;20221;-73
2021/08/18 00:17:33;;;;;;;23.75;22.00;;;;;;;11.99;100.00;98946.44;2096465;28;20364;-73
2021/08/18 00:18:35;;;;;;;23.57;21.77;;;;;;;11.97;100.00;98945.97;2088321;28;20225;-73
2021/08/18 00:19:36;;;;;;;24.45;22.45;;;;;;;11.98;100.00;98942.97;2096541;28;20220;-74
2021/08/18 00:20:38;;;;;;;23.50;21.70;;;;;;;12.02;100.00;98948.50;2097328;28;20672;-73
2021/08/18 00:21:40;;;;;;;23.85;21.75;;;;;;;12.02;100.00;98943.16;2095976;28;20707;-74
2021/08/18 00:22:41;;;;;;;23.85;22.05;;;;;;;11.99;100.00;98941.91;2096369;28;20218;-74
2021/08/18 00:23:42;;;;;;;24.40;22.08;;;;;;;12.01;100.00;98946.94;2097208;28;20226;-74
2021/08/18 00:24:44;;;;;;;23.27;21.33;;;;;;;12.01;100.00;98942.38;2097213;28;20671;-74
2021/08/18 00:25:44;;;;;;;23.95;21.75;;;;;;;12.01;100.00;98941.59;2097229;28;20575;-74
2021/08/18 00:26:46;;;;;;;24.17;21.97;;;;;;;12.01;100.00;98936.25;2097382;28;20249;-73
2021/08/18 00:27:46;;;;;;;24.08;22.27;;;;;;;12.00;100.00;98942.69;2097270;28;20245;-73
2021/08/18 00:28:48;;;;;;;24.93;23.03;;;;;;;11.97;100.00;98936.06;2096493;28;20225;-73
2021/08/18 00:29:49;;;;;;;23.65;21.65;;;;;;;11.97;100.00;98941.41;2096379;28;20343;-73
2021/08/18 00:30:51;;;;;;;24.60;22.60;;;;;;;11.97;100.00;98944.06;2096319;28;20222;-73
2021/08/18 00:31:52;;;;;;;24.00;21.85;;;;;;;11.96;100.00;98944.38;2096264;28;20240;-74
2021/08/18 00:32:54;;;;;;;24.60;22.60;;;;;;;11.96;100.00;98944.38;2097196;28;20236;-73
2021/08/18 00:33:55;;;;;;;23.70;21.90;;;;;;;11.95;100.00;98940.91;2096684;28;20322;-74
2021/08/18 00:34:56;;;;;;;24.27;22.03;;;;;;;11.95;100.00;98935.56;2096708;28;20229;-74
2021/08/18 00:35:58;;;;;;;24.13;22.13;;;;;;;11.97;100.00;98943.28;2096479;28;20246;-73
2021/08/18 00:37:00;;;;;;;25.10;23.00;;;;;;;11.96;100.00;98939.03;2097165;28;20676;-73
2021/08/18 00:38:02;;;;;;;23.88;22.05;;;;;;;11.94;100.00;98935.88;2097089;28;20711;-73
2021/08/18 00:39:02;;;;;;;24.30;21.90;;;;;;;11.96;100.00;98944.38;2096413;28;20578;-73
2021/08/18 00:40:05;;;;;;;23.77;21.77;;;;;;;11.96;100.00;98947.06;2096651;28;20240;-73
2021/08/18 00:41:06;;;;;;;24.02;21.77;;;;;;;11.93;100.00;98935.09;2097024;28;20645;-73
2021/08/18 00:42:08;;;;;;;23.00;21.30;;;;;;;11.95;100.00;98938.25;2096922;28;20291;-74
2021/08/18 00:43:08;;;;;;;23.80;21.90;;;;;;;11.92;100.00;98935.41;2097095;28;20275;-73
2021/08/18 00:44:10;;;;;;;23.10;21.10;;;;;;;11.95;100.00;98942.81;2096935;28;20230;-74
2021/08/18 00:45:12;;;;;;;24.27;21.88;;;;;;;11.94;100.00;98931.31;2097164;28;20715;-74
2021/08/18 00:46:14;;;;;;;22.88;20.90;;;;;;;11.93;100.00;98934.31;2096165;28;20226;-73
2021/08/18 00:47:14;;;;;;;22.85;20.80;;;;;;;11.91;100.00;98933.84;2088087;28;20293;-73
2021/08/18 00:48:16;;;;;;;22.93;20.93;;;;;;;11.91;100.00;98936.50;2096499;28;20692;-73
2021/08/18 00:49:18;;;;;;;23.33;21.33;;;;;;;11.92;100.00;98943.44;2096294;28;20463;-73
2021/08/18 00:50:22;;;;;;;23.48;21.50;;;;;;;11.91;100.00;98947.22;2096358;28;20296;-73
2021/08/18 00:51:23;;;;;;;23.38;21.58;;;;;;;11.89;100.00;98937.59;2096799;28;20313;-73
2021/08/18 00:52:26;;;;;;;24.27;21.80;;;;;;;11.89;100.00;98934.91;2097129;28;20230;-73
2021/08/18 00:53:26;;;;;;;24.05;21.90;;;;;;;11.90;100.00;98946.38;2097136;28;24470;-73
2021/08/18 00:54:28;;;;;;;24.47;22.57;;;;;;;11.94;100.00;98943.91;2096298;28;20582;-74
2021/08/18 00:55:28;;;;;;;24.00;21.95;;;;;;;11.92;100.00;98938.88;2096462;28;20228;-74
2021/08/18 00:56:31;;;;;;;23.50;21.67;;;;;;;11.96;100.00;98941.72;2097002;28;20222;-73
2021/08/18 00:57:32;;;;;;;24.50;22.00;;;;;;;11.94;100.00;98942.03;2095828;28;20301;-73
2021/08/18 00:58:33;;;;;;;24.23;21.60;;;;;;;11.95;100.00;98937.47;2096345;28;20229;-74
2021/08/18 00:59:35;;;;;;;22.83;21.13;;;;;;;11.95;100.00;98932.13;2097055;28;20222;-73
2021/08/18 01:00:37;;;;;;;23.33;21.30;;;;;;;11.97;100.00;98929.91;2097020;28;20228;-73
2021/08/18 01:01:39;;;;;;;24.42;22.50;;;;;;;11.98;100.00;98931.50;2096568;28;20226;-74
2021/08/18 01:02:43;;;;;;;22.67;20.88;;;;;;;12.01;100.00;98936.25;2096965;28;20305;-73
2021/08/18 01:03:44;;;;;;;23.90;22.05;;;;;;;12.01;100.00;98934.34;2097004;28;20218;-74
2021/08/18 01:04:46;;;;;;;23.67;21.80;;;;;;;12.04;100.00;98936.41;2096114;28;20222;-73
2021/08/18 01:05:48;;;;;;;23.48;21.67;;;;;;;12.08;100.00;98937.38;2088201;28;20229;-73
2021/08/18 01:06:48;;;;;;;24.23;22.20;;;;;;;12.07;100.00;98933.09;2088283;28;20222;-73
2021/08/18 01:07:52;;;;;;;23.47;21.57;;;;;;;12.07;100.00;98935.78;2096294;28;20221;-73
2021/08/18 01:08:53;;;;;;;24.60;22.52;;;;;;;12.04;100.00;98935.63;2096591;28;20697;-73
2021/08/18 01:09:55;;;;;;;23.75;21.90;;;;;;;12.06;100.00;98944.09;2097020;28;20236;-74
2021/08/18 01:10:58;;;;;;;24.27;22.38;;;;;;;12.06;100.00;98938.75;2096251;28;20822;-73
2021/08/18 01:12:00;;;;;;;23.85;21.90;;;;;;;12.04;100.00;98940.97;2096328;28;20279;-73
2021/08/18 01:13:03;;;;;;;24.88;22.88;;;;;;;12.05;100.00;98937.19;2096085;28;20222;-74
2021/08/18 01:14:05;;;;;;;24.95;22.67;;;;;;;12.04;100.00;98941.75;2096254;28;20228;-73
2021/08/18 01:15:08;;;;;;;24.95;22.98;;;;;;;12.03;100.00;98937.50;2096483;28;20229;-73
2021/08/18 01:16:10;;;;;;;24.63;22.63;;;;;;;12.02;100.00;98932.47;2095880;28;20226;-73
2021/08/18 01:17:12;;;;;;;24.92;22.92;;;;;;;12.01;100.00;98939.69;2095995;28;20226;-73
2021/08/18 01:18:14;;;;;;;24.58;22.80;;;;;;;11.99;100.00;98933.88;2085888;28;20348;-73
2021/08/18 01:19:16;;;;;;;24.35;22.35;;;;;;;12.01;100.00;98936.25;2093246;28;20229;-73
2021/08/18 01:20:25;;;;;;;24.38;22.50;;;;;;;11.99;100.00;98941.91;2095985;28;20730;-73
2021/08/18 01:21:26;;;;;;;25.52;23.20;;;;;;;11.99;100.00;98938.41;2095927;28;20242;-73
2021/08/18 01:22:27;;;;;;;24.40;22.03;;;;;;;11.97;100.00;98935.25;2096068;28;20226;-74
2021/08/18 01:23:30;;;;;;;24.08;22.08;;;;;;;11.99;100.00;98946.44;2096128;28;20226;-73
2021/08/18 01:24:31;;;;;;;23.75;21.85;;;;;;;11.96;100.00;98939.03;2096005;28;20300;-73
2021/08/18 01:25:32;;;;;;;23.33;21.57;;;;;;;11.98;100.00;98942.19;2088103;28;20226;-73
2021/08/18 01:26:33;;;;;;;23.92;21.83;;;;;;;11.97;100.00;98941.41;2087853;28;20286;-73
2021/08/18 01:27:36;;;;;;;23.33;21.53;;;;;;;11.97;100.00;98945.97;2096134;28;20221;-73
2021/08/18 01:28:38;;;;;;;24.08;21.98;;;;;;;11.96;100.00;98945.16;2095597;28;20252;-74
2021/08/18 01:29:39;;;;;;;24.67;22.20;;;;;;;11.96;100.00;98939.81;2096281;28;20221;-73
2021/08/18 01:30:41;;;;;;;23.90;21.98;;;;;;;11.93;100.00;98935.09;2096841;28;20749;-73
2021/08/18 01:31:43;;;;;;;25.80;23.38;;;;;;;11.93;100.00;98939.66;2096957;28;20309;-74
2021/08/18 01:32:50;;;;;;;23.73;21.73;;;;;;;11.95;100.00;98937.47;2096058;28;20230;-73
2021/08/18 01:33:52;;;;;;;24.73;22.55;;;;;;;11.96;100.00;98934.47;2096228;28;20297;-73
2021/08/18 01:34:52;;;;;;;25.52;23.25;;;;;;;11.93;100.00;98928.97;2096550;28;20711;-73
2021/08/18 01:35:54;;;;;;;25.13;22.97;;;;;;;11.97;100.00;98927.25;2096857;28;20238;-74
2021/08/18 01:36:55;;;;;;;23.88;21.55;;;;;;;11.96;100.00;98923.00;2096976;28;20591;-73
2021/08/18 01:37:57;;;;;;;23.67;21.67;;;;;;;11.96;100.00;98925.66;2095938;28;20230;-73
2021/08/18 01:39:00;;;;;;;24.58;22.33;;;;;;;11.96;100.00;98928.34;2096048;28;20309;-73
2021/08/18 01:40:01;;;;;;;24.40;22.20;;;;;;;11.94;100.00;98928.66;2096804;28;20664;-73
2021/08/18 01:41:03;;;;;;;24.27;21.90;;;;;;;11.93;100.00;98928.97;2096020;28;20241;-73
2021/08/18 01:42:04;;;;;;;23.15;21.48;;;;;;;11.93;100.00;98935.09;2079847;28;20239;-73
2021/08/18 01:43:06;;;;;;;24.20;21.88;;;;;;;11.95;100.00;98935.56;2095774;28;20221;-74
2021/08/18 01:44:10;;;;;;;23.92;21.90;;;;;;;11.96;100.00;98934.47;2081099;28;20293;-74
2021/08/18 01:45:12;;;;;;;24.73;22.42;;;;;;;11.95;100.00;98932.13;2086525;28;20758;-73
2021/08/18 01:46:14;;;;;;;24.17;21.85;;;;;;;11.95;100.00;98932.13;2087532;28;20301;-74
2021/08/18 01:47:15;;;;;;;22.58;20.67;;;;;;;11.93;100.00;98934.31;2080764;28;20696;-73
2021/08/18 01:48:18;;;;;;;26.80;23.30;;;;;;;11.93;100.00;98931.63;2095323;28;20582;-74
2021/08/18 01:49:19;;;;;;;23.85;21.90;;;;;;;11.91;100.00;98921.25;2096803;28;20222;-74
2021/08/18 01:50:22;;;;;;;24.03;21.93;;;;;;;11.93;100.00;98929.75;2096685;28;20222;-73
2021/08/18 01:51:23;;;;;;;24.63;22.63;;;;;;;11.93;100.00;98926.28;2095631;28;20312;-74
2021/08/18 01:52:25;;;;;;;23.92;21.73;;;;;;;11.92;100.00;98922.03;2096035;28;20222;-74
2021/08/18 01:53:30;;;;;;;23.35;21.55;;;;;;;11.95;100.00;98926.75;2096785;28;20238;-74
2021/08/18 01:54:31;;;;;;;23.40;21.50;;;;;;;11.93;100.00;98926.28;2096099;28;20299;-74
2021/08/18 01:55:32;;;;;;;23.00;20.85;;;;;;;11.92;100.00;98922.84;2080269;28;20250;-73
2021/08/18 01:56:34;;;;;;;22.50;20.53;;;;;;;11.92;100.00;98922.84;2097355;28;20221;-74
2021/08/18 01:57:34;;;;;;;23.05;21.20;;;;;;;11.96;100.00;98928.34;2098527;28;20305;-73
2021/08/18 01:58:36;;;;;;;23.67;21.57;;;;;;;11.95;100.00;98924.09;2097466;28;20210;-74
2021/08/18 01:59:38;;;;;;;23.10;21.10;;;;;;;11.95;100.00;98921.41;2097311;28;20254;-74
2021/08/18 02:00:40;;;;;;;23.00;21.20;;;;;;;11.92;100.00;98914.03;2098395;28;20257;-74
2021/08/18 02:01:41;;;;;;;22.88;20.70;;;;;;;11.95;100.00;98924.88;2098299;28;20591;-73
2021/08/18 02:02:44;;;;;;;23.45;21.45;;;;;;;11.93;100.00;98911.03;2098384;28;20317;-74
2021/08/18 02:03:44;;;;;;;23.08;21.23;;;;;;;11.95;100.00;98921.41;2098509;28;20301;-74
2021/08/18 02:04:46;;;;;;;23.27;21.17;;;;;;;11.95;100.00;98919.53;2098277;28;20251;-74
2021/08/18 02:05:47;;;;;;;23.02;21.13;;;;;;;11.96;100.00;98917.66;2098404;28;20244;-74
2021/08/18 02:06:48;;;;;;;23.65;21.45;;;;;;;11.95;100.00;98921.41;2098381;28;20688;-73
2021/08/18 02:07:50;;;;;;;22.80;21.00;;;;;;;11.97;100.00;98919.22;2098446;28;20554;-74
2021/08/18 02:08:50;;;;;;;23.60;21.20;;;;;;;11.96;100.00;98917.66;2098334;28;20582;-74
2021/08/18 02:09:52;;;;;;;22.77;20.63;;;;;;;11.97;100.00;98922.69;2098422;28;20222;-74
2021/08/18 02:10:53;;;;;;;23.00;21.08;;;;;;;11.97;100.00;98921.91;2097969;28;20312;-74
2021/08/18 02:11:54;;;;;;;24.25;22.02;;;;;;;11.95;100.00;98921.41;2097726;28;20249;-74
2021/08/18 02:12:56;;;;;;;23.00;21.10;;;;;;;11.97;100.00;98921.91;2097517;28;20222;-74
2021/08/18 02:13:57;;;;;;;23.00;21.10;;;;;;;11.97;100.00;98911.19;2098271;28;20313;-73
2021/08/18 02:15:00;;;;;;;23.53;21.43;;;;;;;11.96;100.00;98915.75;2098247;28;20225;-74
2021/08/18 02:16:01;;;;;;;23.13;21.05;;;;;;;11.97;100.00;98927.25;2097510;28;20260;-73
2021/08/18 02:17:03;;;;;;;24.07;21.73;;;;;;;11.98;100.00;98921.59;2097561;28;20218;-73
2021/08/18 02:18:06;;;;;;;36.17;22.25;;;;;;;11.99;100.00;98922.38;2097863;28;22117;-73
2021/08/18 02:19:06;;;;;;;24.25;22.30;;;;;;;11.98;100.00;98920.78;2098192;28;20708;-74
2021/08/18 02:20:11;;;;;;;24.37;22.17;;;;;;;12.00;100.00;98927.44;2095141;28;20648;-74
2021/08/18 02:21:11;;;;;;;24.58;22.58;;;;;;;12.01;100.00;98920.19;2097609;28;20363;-73
2021/08/18 02:22:13;;;;;;;25.90;23.27;;;;;;;12.01;100.00;98920.19;2098387;28;20221;-74
2021/08/18 02:23:15;;;;;;;24.98;22.73;;;;;;;12.01;100.00;98917.53;2098139;28;20660;-74
2021/08/18 02:24:16;;;;;;;25.10;22.85;;;;;;;12.01;100.00;98920.19;2098264;28;20234;-73
2021/08/18 02:25:19;;;;;;;24.15;21.88;;;;;;;12.02;100.00;98917.22;2098201;28;20672;-74
2021/08/18 02:26:19;;;;;;;23.77;21.58;;;;;;;12.02;100.00;98925.22;2097389;28;20306;-74
2021/08/18 02:27:21;;;;;;;24.20;22.20;;;;;;;12.02;100.00;98914.53;2097603;28;20222;-73
2021/08/18 02:28:21;;;;;;;24.20;22.15;;;;;;;12.02;100.00;98916.41;2097847;28;20218;-75
2021/08/18 02:29:23;;;;;;;24.50;22.30;;;;;;;12.02;100.00;98914.53;2097365;28;20227;-74
2021/08/18 02:30:27;;;;;;;23.92;21.83;;;;;;;12.03;100.00;98913.44;2097487;28;20753;-74
2021/08/18 02:31:30;;;;;;;23.88;21.90;;;;;;;12.01;100.00;98904.16;2098193;28;20236;-74
2021/08/18 02:32:31;;;;;;;24.23;21.92;;;;;;;12.00;100.00;98902.59;2097380;28;20218;-74
2021/08/18 02:33:34;;;;;;;24.07;21.97;;;;;;;12.03;100.00;98907.31;2097497;28;20750;-74
2021/08/18 02:34:35;;;;;;;24.35;22.35;;;;;;;12.03;100.00;98894.72;2097208;28;20275;-74
2021/08/18 02:35:37;;;;;;;25.23;22.77;;;;;;;12.04;100.00;98903.53;2097430;28;20277;-73
2021/08/18 02:36:38;;;;;;;24.02;21.95;;;;;;;12.05;100.00;98894.41;2097776;28;20626;-74
2021/08/18 02:37:40;;;;;;;24.48;22.23;;;;;;;12.04;100.00;98892.81;2098108;28;20221;-73
2021/08/18 02:38:41;;;;;;;23.90;21.83;;;;;;;12.04;100.00;98895.50;2098000;28;20280;-74
2021/08/18 02:39:43;;;;;;;24.53;22.27;;;;;;;12.05;100.00;98899.75;2097050;28;20299;-74
2021/08/18 02:40:45;;;;;;;24.33;22.00;;;;;;;12.05;100.00;98902.44;2097355;28;20456;-73
2021/08/18 02:41:46;;;;;;;24.17;22.13;;;;;;;12.04;100.00;98907.00;2097268;28;20222;-74
2021/08/18 02:42:48;;;;;;;23.40;21.23;;;;;;;12.06;100.00;98906.69;2097438;28;20313;-74
2021/08/18 02:43:48;;;;;;;23.83;21.92;;;;;;;12.05;100.00;98905.09;2098046;28;20620;-73
2021/08/18 02:44:50;;;;;;;25.70;22.33;;;;;;;12.06;100.00;98904.00;2098066;28;20218;-73
2021/08/18 02:45:52;;;;;;;24.50;21.83;;;;;;;12.07;100.00;98914.38;2098029;28;20306;-73
2021/08/18 02:46:54;;;;;;;24.42;22.52;;;;;;;12.07;100.00;98910.91;2096843;28;20230;-74
2021/08/18 02:47:55;;;;;;;24.08;22.17;;;;;;;12.07;100.00;98913.59;2097342;28;20425;-73
2021/08/18 02:48:57;;;;;;;24.00;21.50;;;;;;;12.08;100.00;98920.53;2097396;28;20225;-74
2021/08/18 02:49:58;;;;;;;24.15;22.08;;;;;;;12.07;100.00;98919.72;2089019;28;20457;-74
2021/08/18 02:50:59;;;;;;;25.23;22.87;;;;;;;12.07;100.00;98919.72;2097378;28;20263;-73
2021/08/18 02:52:00;;;;;;;25.05;22.90;;;;;;;12.08;100.00;98918.66;2098045;28;20218;-74
2021/08/18 02:53:02;;;;;;;24.67;22.70;;;;;;;12.09;100.00;98933.59;2098038;28;20226;-74
2021/08/18 02:54:02;;;;;;;24.83;22.92;;;;;;;12.09;100.00;98930.13;2098079;28;20221;-74
2021/08/18 02:55:05;;;;;;;24.83;22.47;;;;;;;12.09;100.00;98925.59;2097923;28;20222;-74
2021/08/18 02:56:07;;;;;;;24.27;22.00;;;;;;;12.09;100.00;98936.28;2097474;28;20779;-74
2021/08/18 02:57:07;;;;;;;23.30;21.52;;;;;;;12.12;100.00;98932.97;2096903;28;20676;-74
2021/08/18 02:58:09;;;;;;;24.40;22.37;;;;;;;12.10;100.00;98940.53;2097855;28;20569;-74
2021/08/18 02:59:11;;;;;;;24.92;22.92;;;;;;;12.10;100.00;98945.88;2098116;28;20308;-74
2021/08/18 03:00:14;;;;;;;24.45;22.42;;;;;;;12.11;100.00;98936.75;2097972;28;20237;-74
2021/08/18 03:01:16;;;;;;;23.90;21.90;;;;;;;12.13;100.00;98944.47;2097942;28;20249;-74
2021/08/18 03:02:17;;;;;;;24.75;22.48;;;;;;;12.23;100.00;98949.53;2097826;28;20221;-73
2021/08/18 03:03:18;;;;;;;25.00;23.00;;;;;;;12.19;100.00;98948.59;2097923;28;20571;-74
2021/08/18 03:04:19;;;;;;;25.40;23.00;;;;;;;12.20;100.00;98949.38;2097977;28;20222;-73
2021/08/18 03:05:21;;;;;;;24.52;22.60;;;;;;;12.22;100.00;98944.50;2097225;28;20293;-73
2021/08/18 03:06:22;;;;;;;24.90;22.58;;;;;;;12.22;100.00;98955.19;2096640;28;20672;-73
2021/08/18 03:07:23;;;;;;;24.10;22.10;;;;;;;12.18;100.00;98949.69;2096701;28;20618;-74
2021/08/18 03:08:24;;;;;;;24.90;22.55;;;;;;;12.20;100.00;98955.50;2097761;28;20590;-73
2021/08/18 03:09:26;;;;;;;24.13;21.90;;;;;;;12.19;100.00;98953.94;2097872;28;20288;-74
2021/08/18 03:10:28;;;;;;;24.00;21.90;;;;;;;12.21;100.00;98957.09;2097871;28;20313;-74
2021/08/18 03:11:28;;;;;;;24.38;22.17;;;;;;;12.19;100.00;98953.94;2097888;28;20238;-74
2021/08/18 03:12:30;;;;;;;24.70;22.53;;;;;;;12.16;100.00;98959.88;2097814;28;20221;-73
2021/08/18 03:13:30;;;;;;;24.13;22.23;;;;;;;12.16;100.00;98958.03;2097788;28;20695;-73
2021/08/18 03:14:32;;;;;;;25.90;23.80;;;;;;;12.16;100.00;98954.53;2097927;28;20714;-74
2021/08/18 03:15:34;;;;;;;26.27;23.95;;;;;;;12.15;100.00;98958.31;2097716;28;20281;-74
2021/08/18 03:16:36;;;;;;;25.27;23.10;;;;;;;12.13;100.00;98955.16;2097809;28;20742;-73
2021/08/18 03:17:38;;;;;;;25.52;23.23;;;;;;;12.12;100.00;98954.38;2097345;28;20230;-73
2021/08/18 03:18:38;;;;;;;25.15;22.95;;;;;;;12.13;100.00;98958.63;2097740;28;20312;-74
2021/08/18 03:19:40;;;;;;;25.20;22.87;;;;;;;12.12;100.00;98949.03;2097024;28;20722;-73
2021/08/18 03:20:42;;;;;;;25.60;23.55;;;;;;;12.13;100.00;98953.28;2088947;28;20681;-73
2021/08/18 03:21:43;;;;;;;24.45;22.58;;;;;;;12.14;100.00;98962.06;2097140;28;20748;-74
2021/08/18 03:22:45;;;;;;;25.42;23.20;;;;;;;12.14;100.00;98962.06;2097839;28;20249;-73
2021/08/18 03:23:45;;;;;;;25.88;23.65;;;;;;;12.13;100.00;98949.81;2097200;28;20226;-73
2021/08/18 03:24:47;;;;;;;25.20;23.00;;;;;;;12.14;100.00;98954.06;2097059;28;20256;-73
2021/08/18 03:25:48;;;;;;;24.77;22.88;;;;;;;12.12;100.00;98949.03;2097651;28;20230;-73
2021/08/18 03:26:49;;;;;;;24.93;23.20;;;;;;;12.12;100.00;98951.69;2097604;28;20222;-73
2021/08/18 03:27:50;;;;;;;24.63;22.73;;;;;;;12.13;100.00;98947.13;2096865;28;20270;-73
2021/08/18 03:28:52;;;;;;;25.63;23.27;;;;;;;12.12;100.00;98948.22;2088891;28;20238;-73
2021/08/18 03:29:53;;;;;;;25.95;23.95;;;;;;;12.16;100.00;98955.34;2088164;28;20748;-74
2021/08/18 03:30:54;;;;;;;25.60;23.63;;;;;;;12.15;100.00;98950.28;2084219;28;20554;-74
2021/08/18 03:31:57;;;;;;;26.00;23.80;;;;;;;12.16;100.00;98949.19;2096692;28;20237;-74
2021/08/18 03:32:59;;;;;;;26.33;24.33;;;;;;;12.16;100.00;98947.31;2096886;28;20575;-73
2021/08/18 03:34:00;;;;;;;25.20;23.02;;;;;;;12.18;100.00;98943.56;2097752;28;20293;-73
2021/08/18 03:35:02;;;;;;;25.17;22.83;;;;;;;12.19;100.00;98945.91;2097641;28;20228;-74
2021/08/18 03:36:03;;;;;;;24.83;22.83;;;;;;;12.18;100.00;98933.63;2096800;28;20272;-73
2021/08/18 03:37:04;;;;;;;26.53;24.00;;;;;;;12.19;100.00;98940.56;2088575;28;20219;-74
2021/08/18 03:38:06;;;;;;;26.15;24.15;;;;;;;12.19;100.00;98937.09;2096801;28;20763;-74
2021/08/18 03:39:07;;;;;;;25.90;23.83;;;;;;;12.18;100.00;98933.63;2096912;28;20256;-74
2021/08/18 03:40:10;;;;;;;26.37;23.73;;;;;;;12.21;100.00;98943.72;2097647;28;20232;-74
2021/08/18 03:41:10;;;;;;;26.63;24.52;;;;;;;12.21;100.00;98937.56;2097707;28;20218;-74
2021/08/18 03:42:12;;;;;;;26.37;24.57;;;;;;;12.21;100.00;98935.69;2097564;28;20222;-74
2021/08/18 03:43:13;;;;;;;26.00;24.10;;;;;;;12.20;100.00;98936.78;2097544;28;20305;-73
2021/08/18 03:44:14;;;;;;;26.43;24.53;;;;;;;12.22;100.00;98936.47;2096561;28;20687;-73
2021/08/18 03:45:15;;;;;;;26.90;24.90;;;;;;;12.21;100.00;98935.69;2096656;28;20284;-74
2021/08/18 03:46:17;;;;;;;25.87;23.87;;;;;;;12.24;100.00;98935.06;2088510;28;20215;-74
2021/08/18 03:47:19;;;;;;;25.92;22.88;;;;;;;12.23;100.00;98940.72;2080268;28;20302;-74
2021/08/18 03:48:20;;;;;;;26.08;23.80;;;;;;;12.22;100.00;98937.25;2094370;28;20703;-74
2021/08/18 03:49:21;;;;;;;25.17;23.15;;;;;;;12.23;100.00;98944.19;2097515;28;20309;-73
2021/08/18 03:50:23;;;;;;;25.37;23.20;;;;;;;12.23;100.00;98932.69;2097054;28;20234;-74
2021/08/18 03:51:23;;;;;;;25.00;23.10;;;;;;;12.24;100.00;98944.97;2097502;28;20691;-74
2021/08/18 03:52:25;;;;;;;26.00;23.70;;;;;;;12.21;100.00;98938.34;2096623;28;20604;-74
2021/08/18 03:53:26;;;;;;;25.98;23.42;;;;;;;12.23;100.00;98938.81;2096774;28;20230;-74
2021/08/18 03:54:27;;;;;;;24.20;22.20;;;;;;;12.22;100.00;98941.81;2097479;28;20303;-74
2021/08/18 03:55:28;;;;;;;23.45;21.40;;;;;;;12.19;100.00;98937.88;2097408;28;20609;-73
2021/08/18 03:56:30;;;;;;;23.83;21.80;;;;;;;12.20;100.00;98936.78;2096593;28;20229;-73
2021/08/18 03:57:30;;;;;;;23.67;21.80;;;;;;;12.21;100.00;98941.03;2096760;28;20237;-73
2021/08/18 03:58:32;;;;;;;24.33;22.37;;;;;;;12.21;100.00;98935.69;2097444;28;20224;-74
2021/08/18 03:59:32;;;;;;;25.17;22.98;;;;;;;12.22;100.00;98937.25;2097766;28;20221;-74
2021/08/18 04:00:34;;;;;;;25.43;23.17;;;;;;;12.24;100.00;98940.41;2097362;28;20214;-74
2021/08/18 04:01:35;;;;;;;28.80;23.42;;;;;;;12.26;100.00;98932.88;2097388;28;20229;-73
2021/08/18 04:02:38;;;;;;;25.47;22.97;;;;;;;12.24;100.00;98934.25;2097438;28;20663;-74
2021/08/18 04:03:38;;;;;;;23.83;21.83;;;;;;;12.28;100.00;98944.06;2096926;28;20226;-74
2021/08/18 04:04:41;;;;;;;23.20;21.33;;;;;;;12.28;100.00;98935.25;2097332;28;20317;-74
2021/08/18 04:05:41;;;;;;;23.58;21.67;;;;;;;12.27;100.00;98944.38;2097395;28;20253;-73
2021/08/18 04:06:43;;;;;;;23.63;21.50;;;;;;;12.27;100.00;98939.81;2097576;28;20222;-74
2021/08/18 04:07:43;;;;;;;24.20;22.15;;;;;;;12.28;100.00;98935.25;2097371;28;20225;-74
2021/08/18 04:08:45;;;;;;;24.53;22.23;;;;;;;12.31;100.00;98940.75;2097372;28;20228;-74
2021/08/18 04:09:45;;;;;;;24.48;22.35;;;;;;;12.29;100.00;98939.50;2097366;28;20591;-74
2021/08/18 04:10:47;;;;;;;24.73;22.63;;;;;;;12.27;100.00;98939.81;2097345;28;20244;-74
2021/08/18 04:11:48;;;;;;;25.40;22.98;;;;;;;12.26;100.00;98937.44;2097435;28;20305;-74
2021/08/18 04:12:51;;;;;;;25.33;22.80;;;;;;;12.30;100.00;98933.03;2096546;28;20305;-74
2021/08/18 04:13:53;;;;;;;25.10;22.90;;;;;;;12.33;100.00;98935.09;2096297;28;20225;-74
2021/08/18 04:14:54;;;;;;;26.10;23.67;;;;;;;12.31;100.00;98934.63;2097369;28;20241;-73
2021/08/18 04:15:55;;;;;;;25.63;23.43;;;;;;;12.33;100.00;98945.78;2097279;28;20229;-74
2021/08/18 04:16:56;;;;;;;25.60;23.40;;;;;;;12.33;100.00;98935.88;2096544;28;20367;-73
2021/08/18 04:17:59;;;;;;;25.17;23.17;;;;;;;12.34;100.00;98939.38;2081396;28;20247;-73
2021/08/18 04:18:59;;;;;;;25.67;23.58;;;;;;;12.34;100.00;98939.38;2095032;28;20230;-73
2021/08/18 04:20:01;;;;;;;25.73;23.63;;;;;;;12.37;100.00;98944.88;2096440;28;20230;-73
2021/08/18 04:21:03;;;;;;;26.40;23.70;;;;;;;12.39;100.00;98941.88;2097337;28;20238;-74
2021/08/18 04:22:04;;;;;;;25.08;23.17;;;;;;;12.37;100.00;98934.16;2097295;28;20214;-73
2021/08/18 04:23:06;;;;;;;25.30;22.90;;;;;;;12.38;100.00;98941.09;2096418;28;20718;-73
2021/08/18 04:24:06;;;;;;;25.70;23.40;;;;;;;12.44;100.00;98934.50;2096533;28;20226;-73
2021/08/18 04:25:10;;;;;;;25.83;23.67;;;;;;;12.50;100.00;98947.72;2096800;28;20232;-74
2021/08/18 04:26:12;;;;;;;25.42;23.17;;;;;;;12.48;100.00;98948.03;2097224;28;20234;-73
2021/08/18 04:27:12;;;;;;;25.00;23.02;;;;;;;12.52;100.00;98948.22;2096651;28;20302;-73
2021/08/18 04:28:14;;;;;;;24.60;22.60;;;;;;;12.49;100.00;98952.28;2088148;28;20260;-73
2021/08/18 04:29:15;;;;;;;25.30;23.00;;;;;;;12.49;100.00;98938.13;2088231;28;20223;-73
2021/08/18 04:30:17;;;;;;;24.90;22.90;;;;;;;12.52;100.00;98945.56;2096361;28;20676;-74
2021/08/18 04:31:18;;;;;;;32.78;22.67;;;;;;;12.52;100.00;98945.56;2096566;28;20240;-74
2021/08/18 04:32:19;;;;;;;24.48;22.48;;;;;;;12.51;100.00;98946.63;2097163;28;20245;-73
2021/08/18 04:33:22;;;;;;;24.37;22.27;;;;;;;12.51;100.00;98949.28;2097279;28;20230;-73
2021/08/18 04:34:23;;;;;;;24.02;21.83;;;;;;;12.52;100.00;98945.56;2096796;28;20248;-73
2021/08/18 04:35:24;;;;;;;24.17;21.73;;;;;;;12.52;100.00;98945.56;2097176;28;20229;-74
2021/08/18 04:36:26;;;;;;;24.92;22.50;;;;;;;12.56;100.00;98947.28;2097136;28;20313;-74
2021/08/18 04:37:27;;;;;;;25.00;22.63;;;;;;;12.56;100.00;98947.28;2096372;28;20238;-74
2021/08/18 04:38:28;;;;;;;24.63;22.33;;;;;;;12.56;100.00;98947.28;2096466;28;20222;-74
2021/08/18 04:39:29;;;;;;;24.10;22.10;;;;;;;12.57;100.00;98956.09;2095998;28;20241;-74